sensor_id;sensor_type;location;lat;lon;timestamp;pressure;altitude;pressure_sealevel;temperature;humidity
60725;BME280;59881;36.722;-4.462;2023-03-01T00:01:23;100496.38;;;4.19;34.09
60725;BME280;59881;36.722;-4.462;2023-03-01T00:03:49;100470.28;;;3.36;34.01
60725;BME280;59881;36.722;-4.462;2023-03-01T00:06:15;99704.06;;;-0.58;34.01
60725;BME280;59881;36.722;-4.462;2023-03-01T00:08:41;100886.66;;;6.69;33.87
60725;BME280;59881;36.722;-4.462;2023-03-01T00:13:35;101027.72;;;7.51;33.86
60725;BME280;59881;36.722;-4.462;2023-03-01T00:16:05;100568.97;;;4.69;34.14
60725;BME280;59881;36.722;-4.462;2023-03-01T00:18:31;101038.41;;;6.71;34.08
60725;BME280;59881;36.722;-4.462;2023-03-01T00:20:57;101031.97;;;7.35;33.92
60725;BME280;59881;36.722;-4.462;2023-03-01T00:23:23;101027.03;;;7.29;34.26
60725;BME280;59881;36.722;-4.462;2023-03-01T00:25:49;101033.41;;;7.23;35.05
60725;BME280;59881;36.722;-4.462;2023-03-01T00:28:15;100981.53;;;6.93;34.78
60725;BME280;59881;36.722;-4.462;2023-03-01T00:30:40;100713.66;;;4.62;34.69
60725;BME280;59881;36.722;-4.462;2023-03-01T00:33:06;100576.56;;;4.34;34.82
60725;BME280;59881;36.722;-4.462;2023-03-01T00:35:32;100616.13;;;4.44;35.58
60725;BME280;59881;36.722;-4.462;2023-03-01T00:37:58;101015.28;;;6.99;35.21
60725;BME280;59881;36.722;-4.462;2023-03-01T00:40:25;101013.09;;;6.90;35.01
60725;BME280;59881;36.722;-4.462;2023-03-01T00:42:51;101011.47;;;6.88;35.47
60725;BME280;59881;36.722;-4.462;2023-03-01T00:45:16;101011.31;;;6.91;35.88
60725;BME280;59881;36.722;-4.462;2023-03-01T00:47:42;100437.03;;;3.42;35.67
60725;BME280;59881;36.722;-4.462;2023-03-01T00:50:08;100806.09;;;4.99;36.25
60725;BME280;59881;36.722;-4.462;2023-03-01T00:52:34;101047.63;;;6.19;36.79
60725;BME280;59881;36.722;-4.462;2023-03-01T00:55:00;100258.22;;;1.93;36.43
60725;BME280;59881;36.722;-4.462;2023-03-01T00:57:25;100640.59;;;4.42;36.58
60725;BME280;59881;36.722;-4.462;2023-03-01T00:59:51;100518.91;;;3.57;36.58
60725;BME280;59881;36.722;-4.462;2023-03-01T01:02:18;100743.84;;;4.25;36.69
60725;BME280;59881;36.722;-4.462;2023-03-01T01:04:44;100846.25;;;4.96;36.67
60725;BME280;59881;36.722;-4.462;2023-03-01T01:07:09;101014.72;;;6.74;36.86
60725;BME280;59881;36.722;-4.462;2023-03-01T01:09:35;100336.38;;;2.11;37.16
60725;BME280;59881;36.722;-4.462;2023-03-01T01:12:02;100371.59;;;2.87;36.75
60725;BME280;59881;36.722;-4.462;2023-03-01T01:14:28;100894.69;;;6.08;36.67
60725;BME280;59881;36.722;-4.462;2023-03-01T01:16:54;100914.88;;;6.04;36.64
60725;BME280;59881;36.722;-4.462;2023-03-01T01:19:19;100950.94;;;5.55;36.60
60725;BME280;59881;36.722;-4.462;2023-03-01T01:21:45;100741.56;;;5.03;36.23
60725;BME280;59881;36.722;-4.462;2023-03-01T01:24:11;101004.00;;;6.59;36.88
60725;BME280;59881;36.722;-4.462;2023-03-01T01:26:37;100342.97;;;1.72;37.09
60725;BME280;59881;36.722;-4.462;2023-03-01T01:29:04;101003.38;;;6.54;37.23
60725;BME280;59881;36.722;-4.462;2023-03-01T01:31:31;100534.78;;;3.73;37.28
60725;BME280;59881;36.722;-4.462;2023-03-01T01:34:00;100887.75;;;5.86;37.02
60725;BME280;59881;36.722;-4.462;2023-03-01T01:36:27;101004.00;;;6.59;37.65
60725;BME280;59881;36.722;-4.462;2023-03-01T01:38:53;100753.50;;;5.08;37.24
60725;BME280;59881;36.722;-4.462;2023-03-01T01:41:19;100996.63;;;6.69;37.34
60725;BME280;59881;36.722;-4.462;2023-03-01T01:43:47;101148.38;;;6.71;37.44
60725;BME280;59881;36.722;-4.462;2023-03-01T01:46:30;100996.63;;;6.69;37.15
60725;BME280;59881;36.722;-4.462;2023-03-01T01:49:10;100813.28;;;5.55;37.48
60725;BME280;59881;36.722;-4.462;2023-03-01T01:51:44;100991.59;;;6.65;37.21
60725;BME280;59881;36.722;-4.462;2023-03-01T01:54:39;100968.50;;;6.54;37.52
60725;BME280;59881;36.722;-4.462;2023-03-01T01:57:07;100692.94;;;3.93;37.95
60725;BME280;59881;36.722;-4.462;2023-03-01T01:59:36;100823.63;;;5.58;37.78
60725;BME280;59881;36.722;-4.462;2023-03-01T02:02:03;100468.81;;;2.61;37.73
60725;BME280;59881;36.722;-4.462;2023-03-01T02:04:30;100991.72;;;6.61;37.46
60725;BME280;59881;36.722;-4.462;2023-03-01T02:07:13;100877.41;;;6.04;37.47
60725;BME280;59881;36.722;-4.462;2023-03-01T02:09:42;100978.72;;;6.60;37.76
60725;BME280;59881;36.722;-4.462;2023-03-01T02:12:10;100210.72;;;1.90;37.26
60725;BME280;59881;36.722;-4.462;2023-03-01T02:14:35;100518.94;;;3.35;37.20
60725;BME280;59881;36.722;-4.462;2023-03-01T02:17:01;100046.28;;;0.51;38.19
60725;BME280;59881;36.722;-4.462;2023-03-01T02:19:49;101119.41;;;6.55;37.51
60725;BME280;59881;36.722;-4.462;2023-03-01T02:22:27;100724.09;;;3.96;38.09
60725;BME280;59881;36.722;-4.462;2023-03-01T02:30:15;100975.44;;;6.55;38.06
60725;BME280;59881;36.722;-4.462;2023-03-01T02:32:41;100351.38;;;2.49;37.50
60725;BME280;59881;36.722;-4.462;2023-03-01T02:35:13;100084.78;;;0.87;37.49
60725;BME280;59881;36.722;-4.462;2023-03-01T02:37:41;100958.72;;;6.38;38.12
60725;BME280;59881;36.722;-4.462;2023-03-01T02:40:12;100959.00;;;6.32;37.96
60725;BME280;59881;36.722;-4.462;2023-03-01T02:42:54;100957.44;;;6.28;37.77
60725;BME280;59881;36.722;-4.462;2023-03-01T02:45:21;100665.34;;;4.31;37.88
60725;BME280;59881;36.722;-4.462;2023-03-01T02:47:48;100319.34;;;2.25;38.10
60725;BME280;59881;36.722;-4.462;2023-03-01T02:50:23;100972.91;;;6.14;37.50
60725;BME280;59881;36.722;-4.462;2023-03-01T02:55:27;100846.31;;;4.51;37.69
60725;BME280;59881;36.722;-4.462;2023-03-01T02:57:53;100609.69;;;3.90;38.14
60725;BME280;59881;36.722;-4.462;2023-03-01T03:00:28;100981.59;;;6.14;38.52
60725;BME280;59881;36.722;-4.462;2023-03-01T03:02:58;100863.84;;;5.54;38.21
60725;BME280;59881;36.722;-4.462;2023-03-01T03:05:26;99989.47;;;0.21;37.96
60725;BME280;59881;36.722;-4.462;2023-03-01T03:07:53;100987.19;;;6.26;37.97
60725;BME280;59881;36.722;-4.462;2023-03-01T03:10:27;100853.56;;;5.51;38.48
60725;BME280;59881;36.722;-4.462;2023-03-01T03:12:58;100476.06;;;3.22;38.44
60725;BME280;59881;36.722;-4.462;2023-03-01T03:15:25;100525.34;;;3.48;38.45
60725;BME280;59881;36.722;-4.462;2023-03-01T03:17:52;100565.84;;;3.78;38.92
60725;BME280;59881;36.722;-4.462;2023-03-01T03:20:20;100958.78;;;6.18;39.00
60725;BME280;59881;36.722;-4.462;2023-03-01T03:22:48;100960.44;;;6.19;38.68
60725;BME280;59881;36.722;-4.462;2023-03-01T03:25:15;101060.16;;;5.69;38.30
60725;BME280;59881;36.722;-4.462;2023-03-01T03:27:42;100526.22;;;3.25;38.45
60725;BME280;59881;36.722;-4.462;2023-03-01T03:30:12;100398.25;;;2.48;38.11
60725;BME280;59881;36.722;-4.462;2023-03-01T03:32:42;100971.31;;;5.89;38.63
60725;BME280;59881;36.722;-4.462;2023-03-01T03:35:25;100966.91;;;5.90;38.48
60725;BME280;59881;36.722;-4.462;2023-03-01T03:37:52;100772.34;;;4.74;38.93
60725;BME280;59881;36.722;-4.462;2023-03-01T03:40:46;100970.31;;;5.92;38.81
60725;BME280;59881;36.722;-4.462;2023-03-01T03:43:18;100970.53;;;5.87;38.89
60725;BME280;59881;36.722;-4.462;2023-03-01T03:45:45;100974.97;;;5.85;38.72
60725;BME280;59881;36.722;-4.462;2023-03-01T03:48:11;100974.91;;;5.87;39.56
60725;BME280;59881;36.722;-4.462;2023-03-01T03:50:38;100967.06;;;5.87;39.43
60725;BME280;59881;36.722;-4.462;2023-03-01T03:53:10;100971.31;;;5.89;39.78
60725;BME280;59881;36.722;-4.462;2023-03-01T03:55:36;100792.16;;;4.78;39.06
60725;BME280;59881;36.722;-4.462;2023-03-01T03:58:06;100969.25;;;5.75;39.54
60725;BME280;59881;36.722;-4.462;2023-03-01T04:00:37;100973.03;;;5.68;39.91
60725;BME280;59881;36.722;-4.462;2023-03-01T04:03:03;100968.78;;;5.66;39.59
60725;BME280;59881;36.722;-4.462;2023-03-01T04:05:30;100964.50;;;5.65;40.16
60725;BME280;59881;36.722;-4.462;2023-03-01T04:07:56;100873.75;;;5.05;39.53
60725;BME280;59881;36.722;-4.462;2023-03-01T04:10:34;101043.41;;;5.52;39.88
60725;BME280;59881;36.722;-4.462;2023-03-01T04:13:01;100278.56;;;1.33;39.54
60725;BME280;59881;36.722;-4.462;2023-03-01T04:15:27;100963.56;;;5.45;39.79
60725;BME280;59881;36.722;-4.462;2023-03-01T04:17:54;100971.50;;;5.42;39.89
60725;BME280;59881;36.722;-4.462;2023-03-01T04:20:27;100963.78;;;5.39;40.05
60725;BME280;59881;36.722;-4.462;2023-03-01T04:22:57;100970.03;;;5.35;40.27
60725;BME280;59881;36.722;-4.462;2023-03-01T04:25:24;100779.00;;;4.15;40.44
60725;BME280;59881;36.722;-4.462;2023-03-01T04:27:50;100552.44;;;2.75;40.33
60725;BME280;59881;36.722;-4.462;2023-03-01T04:30:15;100969.41;;;5.30;40.99
60725;BME280;59881;36.722;-4.462;2023-03-01T04:32:41;100696.91;;;3.58;40.74
60725;BME280;59881;36.722;-4.462;2023-03-01T04:35:07;100641.09;;;3.41;40.95
60725;BME280;59881;36.722;-4.462;2023-03-01T04:37:33;100994.19;;;4.74;41.07
60725;BME280;59881;36.722;-4.462;2023-03-01T04:40:00;101035.44;;;4.88;41.25
60725;BME280;59881;36.722;-4.462;2023-03-01T04:42:25;100870.53;;;4.76;41.02
60725;BME280;59881;36.722;-4.462;2023-03-01T04:44:52;100397.63;;;1.17;40.93
60725;BME280;59881;36.722;-4.462;2023-03-01T04:47:17;101149.97;;;5.44;40.94
60725;BME280;59881;36.722;-4.462;2023-03-01T04:49:43;100970.47;;;5.46;41.43
60725;BME280;59881;36.722;-4.462;2023-03-01T04:52:08;100174.53;;;0.66;40.66
60725;BME280;59881;36.722;-4.462;2023-03-01T04:54:35;100861.88;;;4.76;40.61
60725;BME280;59881;36.722;-4.462;2023-03-01T04:57:04;100971.38;;;5.45;40.81
60725;BME280;59881;36.722;-4.462;2023-03-01T04:59:29;101062.06;;;5.43;41.05
60725;BME280;59881;36.722;-4.462;2023-03-01T05:01:56;100674.03;;;3.66;41.34
60725;BME280;59881;36.722;-4.462;2023-03-01T05:04:23;100970.66;;;5.42;41.57
60725;BME280;59881;36.722;-4.462;2023-03-01T05:06:49;100465.38;;;1.61;40.91
60725;BME280;59881;36.722;-4.462;2023-03-01T05:09:14;100886.53;;;4.45;40.85
60725;BME280;59881;36.722;-4.462;2023-03-01T05:11:40;100985.25;;;5.25;41.08
60725;BME280;59881;36.722;-4.462;2023-03-01T05:14:07;100476.06;;;2.29;41.55
60725;BME280;59881;36.722;-4.462;2023-03-01T05:16:33;100963.66;;;5.20;41.48
60725;BME280;59881;36.722;-4.462;2023-03-01T05:18:59;100534.78;;;2.60;41.04
60725;BME280;59881;36.722;-4.462;2023-03-01T05:21:25;100992.28;;;5.23;41.26
60725;BME280;59881;36.722;-4.462;2023-03-01T05:23:51;100928.91;;;4.52;41.30
60725;BME280;59881;36.722;-4.462;2023-03-01T05:26:19;100962.16;;;5.14;41.72
60725;BME280;59881;36.722;-4.462;2023-03-01T05:28:47;100867.06;;;4.54;41.56
60725;BME280;59881;36.722;-4.462;2023-03-01T05:31:12;100968.22;;;5.15;41.82
60725;BME280;59881;36.722;-4.462;2023-03-01T05:33:41;100970.00;;;5.14;42.06
60725;BME280;59881;36.722;-4.462;2023-03-01T05:36:08;100969.41;;;5.08;42.23
60725;BME280;59881;36.722;-4.462;2023-03-01T05:38:35;100964.34;;;5.03;42.35
60725;BME280;59881;36.722;-4.462;2023-03-01T05:41:01;100639.16;;;2.99;42.56
60725;BME280;59881;36.722;-4.462;2023-03-01T05:43:30;100877.03;;;4.43;42.49
60725;BME280;59881;36.722;-4.462;2023-03-01T05:45:59;100683.34;;;2.51;43.08
60725;BME280;59881;36.722;-4.462;2023-03-01T05:48:25;100855.06;;;3.29;42.52
60725;BME280;59881;36.722;-4.462;2023-03-01T05:50:51;100987.09;;;5.00;42.74
60725;BME280;59881;36.722;-4.462;2023-03-01T05:53:19;100992.22;;;5.03;42.80
60725;BME280;59881;36.722;-4.462;2023-03-01T05:55:47;100988.75;;;5.02;42.75
60725;BME280;59881;36.722;-4.462;2023-03-01T05:58:18;100986.94;;;5.04;42.53
60725;BME280;59881;36.722;-4.462;2023-03-01T06:00:46;100635.06;;;2.92;42.44
60725;BME280;59881;36.722;-4.462;2023-03-01T06:03:13;100999.16;;;5.04;42.22
60725;BME280;59881;36.722;-4.462;2023-03-01T06:05:40;100592.19;;;2.54;42.51
60725;BME280;59881;36.722;-4.462;2023-03-01T06:08:06;100990.66;;;4.98;42.71
60725;BME280;59881;36.722;-4.462;2023-03-01T06:10:32;100560.88;;;2.32;42.72
60725;BME280;59881;36.722;-4.462;2023-03-01T06:12:57;100905.88;;;4.40;43.05
60725;BME280;59881;36.722;-4.462;2023-03-01T06:15:24;100593.28;;;2.48;42.89
60725;BME280;59881;36.722;-4.462;2023-03-01T06:17:50;100907.81;;;4.34;43.08
60725;BME280;59881;36.722;-4.462;2023-03-01T06:20:19;101006.59;;;4.91;43.03
60725;BME280;59881;36.722;-4.462;2023-03-01T06:22:45;100899.97;;;3.61;42.96
60725;BME280;59881;36.722;-4.462;2023-03-01T06:25:13;100588.31;;;1.89;42.79
60725;BME280;59881;36.722;-4.462;2023-03-01T06:27:39;100801.84;;;3.61;43.15
60725;BME280;59881;36.722;-4.462;2023-03-01T06:30:06;100999.78;;;4.87;43.18
60725;BME280;59881;36.722;-4.462;2023-03-01T06:32:33;100726.94;;;2.42;43.90
60725;BME280;59881;36.722;-4.462;2023-03-01T06:34:59;101004.91;;;4.90;43.14
60725;BME280;59881;36.722;-4.462;2023-03-01T06:37:25;100859.22;;;4.08;43.60
60725;BME280;59881;36.722;-4.462;2023-03-01T06:39:51;100994.38;;;4.91;43.02
60725;BME280;59881;36.722;-4.462;2023-03-01T06:42:16;100418.97;;;1.26;42.90
60725;BME280;59881;36.722;-4.462;2023-03-01T06:44:43;100737.38;;;3.19;43.27
60725;BME280;59881;36.722;-4.462;2023-03-01T06:47:09;101005.50;;;4.96;43.62
60725;BME280;59881;36.722;-4.462;2023-03-01T06:49:34;100788.31;;;3.75;43.61
60725;BME280;59881;36.722;-4.462;2023-03-01T06:52:00;101002.41;;;5.09;43.36
60725;BME280;59881;36.722;-4.462;2023-03-01T06:54:25;101068.44;;;4.89;43.53
60725;BME280;59881;36.722;-4.462;2023-03-01T06:56:51;100700.75;;;3.47;43.18
60725;BME280;59881;36.722;-4.462;2023-03-01T06:59:17;100476.09;;;2.53;43.11
60725;BME280;59881;36.722;-4.462;2023-03-01T07:01:43;100895.72;;;6.04;42.47
60725;BME280;59881;36.722;-4.462;2023-03-01T07:04:10;100994.88;;;7.96;40.40
60725;BME280;59881;36.722;-4.462;2023-03-01T07:06:36;100430.75;;;5.41;38.42
60725;BME280;59881;36.722;-4.462;2023-03-01T07:09:02;100792.22;;;8.24;36.62
60725;BME280;59881;36.722;-4.462;2023-03-01T07:11:27;100568.38;;;8.67;34.89
60725;BME280;59881;36.722;-4.462;2023-03-01T07:13:53;100710.22;;;9.96;33.85
60725;BME280;59881;36.722;-4.462;2023-03-01T07:16:19;100416.84;;;9.63;32.00
60725;BME280;59881;36.722;-4.462;2023-03-01T07:18:46;100991.41;;;13.84;30.38
60725;BME280;59881;36.722;-4.462;2023-03-01T07:21:13;100869.31;;;13.65;29.24
60725;BME280;59881;36.722;-4.462;2023-03-01T07:23:39;100989.09;;;15.38;27.91
60725;BME280;59881;36.722;-4.462;2023-03-01T07:26:04;100461.97;;;12.84;27.00
60725;BME280;59881;36.722;-4.462;2023-03-01T07:28:30;100884.06;;;15.77;25.93
60725;BME280;59881;36.722;-4.462;2023-03-01T07:31:01;100984.25;;;17.77;24.71
60725;BME280;59881;36.722;-4.462;2023-03-01T07:33:27;100987.19;;;18.51;23.94
60725;BME280;59881;36.722;-4.462;2023-03-01T07:36:00;100999.31;;;19.28;23.19
60725;BME280;59881;36.722;-4.462;2023-03-01T07:38:26;100998.00;;;19.68;22.18
60725;BME280;59881;36.722;-4.462;2023-03-01T07:40:52;101001.91;;;20.62;20.68
60725;BME280;59881;36.722;-4.462;2023-03-01T07:43:18;100986.00;;;21.27;20.07
60725;BME280;59881;36.722;-4.462;2023-03-01T07:45:43;100997.28;;;21.39;19.85
60725;BME280;59881;36.722;-4.462;2023-03-01T07:48:10;100999.91;;;22.54;19.33
60725;BME280;59881;36.722;-4.462;2023-03-01T07:50:35;100522.50;;;19.75;18.51
60725;BME280;59881;36.722;-4.462;2023-03-01T07:53:01;100619.81;;;21.67;18.09
60725;BME280;59881;36.722;-4.462;2023-03-01T07:55:27;101000.09;;;24.75;17.27
60725;BME280;59881;36.722;-4.462;2023-03-01T07:57:53;101065.59;;;25.42;16.57
60725;BME280;59881;36.722;-4.462;2023-03-01T08:00:19;100690.56;;;24.15;16.08
60725;BME280;59881;36.722;-4.462;2023-03-01T08:02:45;101003.41;;;26.49;15.72
60725;BME280;59881;36.722;-4.462;2023-03-01T08:05:10;100743.16;;;25.32;14.90
60725;BME280;59881;36.722;-4.462;2023-03-01T08:07:36;100927.03;;;26.69;14.53
60725;BME280;59881;36.722;-4.462;2023-03-01T08:10:02;100745.31;;;26.40;14.12
60725;BME280;59881;36.722;-4.462;2023-03-01T08:12:28;100848.72;;;27.75;14.02
60725;BME280;59881;36.722;-4.462;2023-03-01T08:14:54;100923.66;;;28.66;13.61
60725;BME280;59881;36.722;-4.462;2023-03-01T08:17:20;100885.16;;;27.73;13.66
60725;BME280;59881;36.722;-4.462;2023-03-01T08:19:45;100843.38;;;27.29;13.32
60725;BME280;59881;36.722;-4.462;2023-03-01T08:22:11;101026.09;;;28.31;13.74
60725;BME280;59881;36.722;-4.462;2023-03-01T08:24:37;100854.34;;;27.74;13.81
60725;BME280;59881;36.722;-4.462;2023-03-01T08:27:04;100438.94;;;25.49;13.80
60725;BME280;59881;36.722;-4.462;2023-03-01T08:29:32;101016.44;;;29.27;13.30
60725;BME280;59881;36.722;-4.462;2023-03-01T08:31:59;100874.94;;;28.92;12.90
60725;BME280;59881;36.722;-4.462;2023-03-01T08:34:24;100588.59;;;27.52;13.27
60725;BME280;59881;36.722;-4.462;2023-03-01T08:36:51;101091.72;;;30.27;12.74
60725;BME280;59881;36.722;-4.462;2023-03-01T08:39:19;100605.13;;;28.39;12.62
60725;BME280;59881;36.722;-4.462;2023-03-01T08:41:46;100909.00;;;30.80;12.06
60725;BME280;59881;36.722;-4.462;2023-03-01T08:44:13;100606.16;;;29.55;12.07
60725;BME280;59881;36.722;-4.462;2023-03-01T08:46:41;100831.16;;;30.98;12.08
60725;BME280;59881;36.722;-4.462;2023-03-01T08:49:09;100987.34;;;32.45;11.96
60725;BME280;59881;36.722;-4.462;2023-03-01T08:51:36;101044.03;;;32.54;11.60
60725;BME280;59881;36.722;-4.462;2023-03-01T08:54:06;100834.84;;;31.39;11.80
60725;BME280;59881;36.722;-4.462;2023-03-01T08:56:33;100999.00;;;32.92;11.95
60725;BME280;59881;36.722;-4.462;2023-03-01T08:58:59;100629.25;;;30.60;11.94
60725;BME280;59881;36.722;-4.462;2023-03-01T09:01:25;100473.75;;;30.35;11.46
60725;BME280;59881;36.722;-4.462;2023-03-01T09:03:51;101042.72;;;33.84;11.08
60725;BME280;59881;36.722;-4.462;2023-03-01T09:06:16;100720.81;;;32.35;11.17
60725;BME280;59881;36.722;-4.462;2023-03-01T09:08:44;100992.03;;;34.54;10.64
60725;BME280;59881;36.722;-4.462;2023-03-01T09:11:13;100994.06;;;35.08;10.37
60725;BME280;59881;36.722;-4.462;2023-03-01T09:13:41;100993.78;;;35.63;9.68
60725;BME280;59881;36.722;-4.462;2023-03-01T09:16:07;100433.38;;;32.92;9.96
60725;BME280;59881;36.722;-4.462;2023-03-01T09:18:34;100257.94;;;31.88;9.31
60725;BME280;59881;36.722;-4.462;2023-03-01T09:21:05;100631.75;;;34.81;9.35
60725;BME280;59881;36.722;-4.462;2023-03-01T09:23:37;100996.22;;;37.59;8.91
60725;BME280;59881;36.722;-4.462;2023-03-01T09:26:08;100978.59;;;37.96;8.88
60725;BME280;59881;36.722;-4.462;2023-03-01T09:28:35;100753.69;;;37.02;8.80
60725;BME280;59881;36.722;-4.462;2023-03-01T09:31:01;100981.41;;;38.66;8.49
60725;BME280;59881;36.722;-4.462;2023-03-01T09:33:28;100877.25;;;38.34;8.59
60725;BME280;59881;36.722;-4.462;2023-03-01T09:36:02;101024.00;;;39.29;7.80
60725;BME280;59881;36.722;-4.462;2023-03-01T09:38:28;100968.00;;;39.97;7.67
60725;BME280;59881;36.722;-4.462;2023-03-01T09:40:54;100955.53;;;40.67;7.58
60725;BME280;59881;36.722;-4.462;2023-03-01T09:46:04;100418.34;;;37.83;8.00
60725;BME280;59881;36.722;-4.462;2023-03-01T09:48:38;100957.75;;;41.87;7.66
60725;BME280;59881;36.722;-4.462;2023-03-01T09:51:16;100777.31;;;41.07;7.43
60725;BME280;59881;36.722;-4.462;2023-03-01T09:53:43;100952.06;;;42.98;6.63
60725;BME280;59881;36.722;-4.462;2023-03-01T10:01:40;100936.91;;;44.29;7.44
60725;BME280;59881;36.722;-4.462;2023-03-01T10:09:47;100878.25;;;45.00;6.21
60725;BME280;59881;36.722;-4.462;2023-03-01T10:12:19;100704.19;;;44.22;6.58
60725;BME280;59881;36.722;-4.462;2023-03-01T10:17:26;100963.44;;;46.17;4.53
60725;BME280;59881;36.722;-4.462;2023-03-01T10:19:55;100931.28;;;46.49;5.52
60725;BME280;59881;36.722;-4.462;2023-03-01T10:22:28;100920.91;;;46.92;4.52
60725;BME280;59881;36.722;-4.462;2023-03-01T10:24:58;100933.25;;;47.03;4.17
60725;BME280;59881;36.722;-4.462;2023-03-01T10:30:22;100912.59;;;47.50;4.97
60725;BME280;59881;36.722;-4.462;2023-03-01T10:32:56;100642.91;;;45.97;4.69
60725;BME280;59881;36.722;-4.462;2023-03-01T10:35:29;100910.72;;;48.56;3.89
60725;BME280;59881;36.722;-4.462;2023-03-01T10:38:06;100910.19;;;49.06;3.50
60725;BME280;59881;36.722;-4.462;2023-03-01T10:40:34;100912.41;;;48.85;3.19
60725;BME280;59881;36.722;-4.462;2023-03-01T10:43:03;100903.91;;;48.81;3.15
60725;BME280;59881;36.722;-4.462;2023-03-01T10:50:29;100889.84;;;48.37;3.15
60725;BME280;59881;36.722;-4.462;2023-03-01T10:53:03;100898.97;;;48.62;2.75
60725;BME280;59881;36.722;-4.462;2023-03-01T10:55:35;100543.38;;;45.82;3.19
60725;BME280;59881;36.722;-4.462;2023-03-01T10:58:21;100890.19;;;46.46;2.93
60725;BME280;59881;36.722;-4.462;2023-03-01T11:00:57;100896.53;;;45.10;3.32
60725;BME280;59881;36.722;-4.462;2023-03-01T11:03:33;100871.16;;;41.73;4.57
60725;BME280;59881;36.722;-4.462;2023-03-01T11:06:05;100850.88;;;34.26;7.68
60725;BME280;59881;36.722;-4.462;2023-03-01T11:11:29;100906.66;;;24.97;13.84
60725;BME280;59881;36.722;-4.462;2023-03-01T11:16:43;100828.63;;;20.30;17.11
60725;BME280;59881;36.722;-4.462;2023-03-01T11:24:09;100901.72;;;19.16;19.35
60725;BME280;59881;36.722;-4.462;2023-03-01T11:26:38;100898.28;;;18.88;19.82
60725;BME280;59881;36.722;-4.462;2023-03-01T11:29:13;100913.59;;;18.86;20.70
60725;BME280;59881;36.722;-4.462;2023-03-01T11:31:41;100559.31;;;16.14;21.78
60725;BME280;59881;36.722;-4.462;2023-03-01T11:34:14;100150.53;;;13.61;23.29
60725;BME280;59881;36.722;-4.462;2023-03-01T11:36:51;100901.28;;;17.63;24.62
60725;BME280;59881;36.722;-4.462;2023-03-01T11:42:28;100916.13;;;16.87;27.58
60725;BME280;59881;36.722;-4.462;2023-03-01T11:45:02;101019.19;;;16.85;28.92
60725;BME280;59881;36.722;-4.462;2023-03-01T11:50:28;100882.59;;;16.65;26.94
60725;BME280;59881;36.722;-4.462;2023-03-01T11:55:46;100874.44;;;16.57;28.51
60725;BME280;59881;36.722;-4.462;2023-03-01T12:03:46;100869.69;;;16.20;29.75
60725;BME280;59881;36.722;-4.462;2023-03-01T12:07:00;100863.75;;;15.97;29.46
60725;BME280;59881;36.722;-4.462;2023-03-01T12:15:37;100858.00;;;15.71;31.71
60725;BME280;59881;36.722;-4.462;2023-03-01T12:20:58;100852.78;;;15.69;31.38
60725;BME280;59881;36.722;-4.462;2023-03-01T12:26:36;100836.63;;;15.51;30.91
60725;BME280;59881;36.722;-4.462;2023-03-01T12:39:22;100803.56;;;15.86;29.56
60725;BME280;59881;36.722;-4.462;2023-03-01T12:50:28;100784.69;;;16.30;29.65
60725;BME280;59881;36.722;-4.462;2023-03-01T12:53:00;100468.94;;;13.73;29.73
60725;BME280;59881;36.722;-4.462;2023-03-01T12:55:50;100764.13;;;16.42;30.32
60725;BME280;59881;36.722;-4.462;2023-03-01T13:00:54;100755.75;;;16.56;29.60
60725;BME280;59881;36.722;-4.462;2023-03-01T13:03:36;100744.13;;;16.57;28.83
60725;BME280;59881;36.722;-4.462;2023-03-01T13:25:34;100717.38;;;16.49;29.07
60725;BME280;59881;36.722;-4.462;2023-03-01T13:30:57;100152.13;;;13.12;29.01
60725;BME280;59881;36.722;-4.462;2023-03-01T13:35:49;100689.53;;;16.63;28.71
60725;BME280;59881;36.722;-4.462;2023-03-01T13:38:37;100692.59;;;16.77;28.33
60725;BME280;59881;36.722;-4.462;2023-03-01T13:41:03;100398.56;;;14.53;27.98
60725;BME280;59881;36.722;-4.462;2023-03-01T13:43:37;100679.28;;;16.97;27.33
60725;BME280;59881;36.722;-4.462;2023-03-01T13:46:11;100677.00;;;17.02;27.14
60725;BME280;59881;36.722;-4.462;2023-03-01T13:48:40;100642.91;;;16.88;26.90
60725;BME280;59881;36.722;-4.462;2023-03-01T13:51:09;100685.28;;;16.99;26.18
60725;BME280;59881;36.722;-4.462;2023-03-01T13:53:40;100502.41;;;15.87;26.36
60725;BME280;59881;36.722;-4.462;2023-03-01T13:58:47;100653.28;;;16.81;24.40
60725;BME280;59881;36.722;-4.462;2023-03-01T14:01:22;100643.59;;;16.80;22.92
60725;BME280;59881;36.722;-4.462;2023-03-01T14:03:48;100643.16;;;16.85;22.47
60725;BME280;59881;36.722;-4.462;2023-03-01T14:06:16;100647.78;;;16.92;22.35
60725;BME280;59881;36.722;-4.462;2023-03-01T14:08:46;100637.69;;;16.96;21.69
60725;BME280;59881;36.722;-4.462;2023-03-01T14:14:18;100628.41;;;17.00;21.27
60725;BME280;59881;36.722;-4.462;2023-03-01T14:19:39;100628.97;;;17.04;20.73
60725;BME280;59881;36.722;-4.462;2023-03-01T14:22:42;100624.09;;;16.99;20.53
60725;BME280;59881;36.722;-4.462;2023-03-01T14:25:21;100562.84;;;16.62;20.27
60725;BME280;59881;36.722;-4.462;2023-03-01T14:30:30;100315.75;;;15.09;19.85
60725;BME280;59881;36.722;-4.462;2023-03-01T14:33:01;100614.47;;;16.88;19.96
60725;BME280;59881;36.722;-4.462;2023-03-01T14:35:33;100658.31;;;16.55;20.45
60725;BME280;59881;36.722;-4.462;2023-03-01T14:37:59;100183.53;;;13.57;20.22
60725;BME280;59881;36.722;-4.462;2023-03-01T14:40:29;100607.31;;;16.89;20.09
60725;BME280;59881;36.722;-4.462;2023-03-01T14:42:58;100193.88;;;14.29;20.32
60725;BME280;59881;36.722;-4.462;2023-03-01T14:45:27;100605.53;;;16.80;19.90
60725;BME280;59881;36.722;-4.462;2023-03-01T14:47:54;99767.25;;;11.68;20.46
60725;BME280;59881;36.722;-4.462;2023-03-01T14:50:23;100602.72;;;16.81;20.12
60725;BME280;59881;36.722;-4.462;2023-03-01T14:52:53;100117.44;;;13.86;20.79
60725;BME280;59881;36.722;-4.462;2023-03-01T14:55:41;100605.53;;;16.80;20.55
60725;BME280;59881;36.722;-4.462;2023-03-01T14:58:15;100635.31;;;16.73;20.33
60725;BME280;59881;36.722;-4.462;2023-03-01T15:00:49;100459.31;;;15.93;20.57
60725;BME280;59881;36.722;-4.462;2023-03-01T15:03:23;100596.97;;;16.76;20.61
60725;BME280;59881;36.722;-4.462;2023-03-01T15:05:50;100594.44;;;16.74;20.64